^^
Lisbon, NH - Weather Station Historical Data
Daily Summary for April 6, 2021 Units:  English    Metric   Both
Daily Weekly Monthly Yearly
  High: Low: Average:
Temperature: 55.4 °F 36.7 °F 46.1 °F
Dew Point: 38.8 °F 31.6 °F 34.2 °F
Humidity: 86% 42.8% 65%
Wind Speed: 9.5mph 0mph 1.7mph
Wind Gust: 17mph - -
Wind- - ENE
Pressure: 29.97 in 29.86 in -
Precipitation: 0.00 in    
 
 
Tabular Data for April 6, 2021
Time Temperature Dew Point Pressure Wind Wind Speed Wind Gust Humidity Rainfall Rate (Hourly) solar
00:04 42 °F 32.4 °F 29.89 in NE 0.4 mph 3 mph 68.6% 0.00 in 0 W/m2
00:09 41.9 °F 32.5 °F 29.89 in NE 0.8 mph 3 mph 69% 0.00 in 0 W/m2
00:14 41.8 °F 32.6 °F 29.89 in ENE 2.3 mph 6 mph 69.7% 0.00 in 0 W/m2
00:19 41.7 °F 33 °F 29.89 in ENE 2.2 mph 7 mph 70.9% 0.00 in 0 W/m2
00:24 41.6 °F 33 °F 29.89 in ENE 4.5 mph 13 mph 71.2% 0.00 in 0 W/m2
00:29 41.5 °F 33.1 °F 29.89 in Calm   11 mph 72% 0.00 in 0 W/m2
00:34 41.3 °F 33.3 °F 29.89 in Calm     72.7% 0.00 in 0 W/m2
00:39 41.2 °F 33.3 °F 29.89 in Calm     73.2% 0.00 in 0 W/m2
00:44 41.1 °F 33.4 °F 29.89 in Calm     74% 0.00 in 0 W/m2
00:49 40.9 °F 33.3 °F 29.89 in ENE 0.6 mph 9 mph 74% 0.00 in 0 W/m2
00:54 40.8 °F 33.2 °F 29.89 in NE 0.7 mph 3 mph 74% 0.00 in 0 W/m2
00:59 40.6 °F 33.1 °F 29.89 in Calm   1 mph 74.5% 0.00 in 0 W/m2
01:04 40.2 °F 33.3 °F 29.89 in NE 0.1 mph 1 mph 76% 0.00 in 0 W/m2
01:09 40 °F 33.2 °F 29.89 in NE 0.3 mph 2 mph 76.2% 0.00 in 0 W/m2
01:14 39.8 °F 33.2 °F 29.89 in Calm   1 mph 77% 0.00 in 0 W/m2
01:19 39.7 °F 33.1 °F 29.89 in Calm   1 mph 77% 0.00 in 0 W/m2
01:24 39.5 °F 33.1 °F 29.89 in Calm     77.7% 0.00 in 0 W/m2
01:29 39.2 °F 33 °F 29.89 in Calm     78% 0.00 in 0 W/m2
01:34 39.1 °F 33.1 °F 29.88 in Calm     79% 0.00 in 0 W/m2
01:39 38.9 °F 33 °F 29.88 in NE 0.3 mph 3 mph 79.1% 0.00 in 0 W/m2
01:44 38.7 °F 33.1 °F 29.88 in Calm   2 mph 80% 0.00 in 0 W/m2
01:49 38.7 °F 33 °F 29.88 in Calm   2 mph 80% 0.00 in 0 W/m2
01:54 38.6 °F 33 °F 29.88 in Calm     80% 0.00 in 0 W/m2
01:59 38.4 °F 32.9 °F 29.89 in Calm     80.2% 0.00 in 0 W/m2
02:04 38.3 °F 33 °F 29.89 in Calm     81% 0.00 in 0 W/m2
02:09 38.1 °F 32.8 °F 29.89 in Calm     81% 0.00 in 0 W/m2
02:14 38 °F 33 °F 29.89 in Calm     81.7% 0.00 in 0 W/m2
02:19 38 °F 32.8 °F 29.89 in Calm     81.5% 0.00 in 0 W/m2
02:24 38 °F 32.7 °F 29.89 in Calm     81% 0.00 in 0 W/m2
02:29 37.8 °F 32.5 °F 29.89 in Calm     81.1% 0.00 in 0 W/m2
02:34 37.8 °F 32.8 °F 29.88 in Calm     82% 0.00 in 0 W/m2
02:39 37.7 °F 32.7 °F 29.88 in Calm     82% 0.00 in 0 W/m2
02:44 37.7 °F 32.7 °F 29.89 in Calm     82% 0.00 in 0 W/m2
02:49 37.7 °F 32.7 °F 29.89 in Calm     82% 0.00 in 0 W/m2
02:54 37.7 °F 32.7 °F 29.89 in Calm     82% 0.00 in 0 W/m2
02:59 37.7 °F 32.7 °F 29.89 in Calm     82% 0.00 in 0 W/m2
03:04 37.8 °F 32.8 °F 29.88 in Calm     82% 0.00 in 0 W/m2
03:09 37.9 °F 32.8 °F 29.88 in Calm     81.6% 0.00 in 0 W/m2
03:14 38 °F 32.7 °F 29.88 in Calm     81% 0.00 in 0 W/m2
03:19 38 °F 32.7 °F 29.88 in Calm     81% 0.00 in 0 W/m2
03:24 38 °F 32.7 °F 29.88 in Calm     81% 0.00 in 0 W/m2
03:29 38.1 °F 32.8 °F 29.88 in Calm     81% 0.00 in 0 W/m2
03:34 38.1 °F 32.8 °F 29.88 in Calm     81% 0.00 in 0 W/m2
03:39 38.1 °F 32.8 °F 29.88 in Calm     81% 0.00 in 0 W/m2
03:44 38 °F 32.7 °F 29.88 in Calm     81% 0.00 in 0 W/m2
03:49 38 °F 32.7 °F 29.88 in Calm     81% 0.00 in 0 W/m2
03:54 38 °F 32.7 °F 29.88 in Calm     81% 0.00 in 0 W/m2
03:59 38 °F 32.7 °F 29.88 in Calm     81% 0.00 in 0 W/m2
04:04 37.9 °F 32.6 °F 29.87 in Calm     81.3% 0.00 in 0 W/m2
04:09 37.8 °F 32.9 °F 29.87 in Calm     82.4% 0.00 in 0 W/m2
04:14 37.8 °F 32.8 °F 29.88 in Calm     82.1% 0.00 in 0 W/m2
04:19 37.7 °F 32.7 °F 29.88 in Calm     82% 0.00 in 0 W/m2
04:24 37.7 °F 33 °F 29.88 in Calm     83% 0.00 in 0 W/m2
04:29 37.7 °F 33.2 °F 29.88 in Calm     83.6% 0.00 in 0 W/m2
04:34 37.6 °F 33.2 °F 29.88 in Calm     84% 0.00 in 0 W/m2
04:39 37.6 °F 33.2 °F 29.88 in Calm     84% 0.00 in 0 W/m2
04:44 37.4 °F 33 °F 29.88 in Calm     84% 0.00 in 0 W/m2
04:49 37.4 °F 33 °F 29.88 in Calm     84% 0.00 in 0 W/m2
04:54 37.4 °F 33 °F 29.88 in Calm     84% 0.00 in 0 W/m2
04:59 37.4 °F 33.1 °F 29.89 in Calm     84.2% 0.00 in 0 W/m2
05:04 37.3 °F 33.2 °F 29.89 in Calm     85% 0.00 in 0 W/m2
05:09 37.3 °F 33.1 °F 29.89 in Calm     84.6% 0.00 in 0 W/m2
05:14 37.1 °F 32.7 °F 29.89 in Calm     84% 0.00 in 0 W/m2
05:19 37.1 °F 32.7 °F 29.89 in Calm     84% 0.00 in 0 W/m2
05:24 37.1 °F 32.7 °F 29.89 in Calm     84% 0.00 in 0 W/m2
05:29 37 °F 32.9 °F 29.89 in Calm     84.8% 0.00 in 0 W/m2
05:34 37 °F 32.9 °F 29.89 in Calm     84.9% 0.00 in 0 W/m2
05:39 37 °F 32.9 °F 29.89 in Calm     85% 0.00 in 0 W/m2
05:44 37 °F 32.9 °F 29.90 in Calm     85% 0.00 in 0 W/m2
05:49 37 °F 32.9 °F 29.90 in Calm     85% 0.00 in 0 W/m2
05:54 36.9 °F 32.9 °F 29.90 in Calm     85% 0.00 in 0 W/m2
05:59 36.8 °F 32.7 °F 29.90 in Calm     85% 0.00 in 0 W/m2
06:04 36.8 °F 32.7 °F 29.90 in Calm     85% 0.00 in 0 W/m2
06:09 36.8 °F 32.7 °F 29.90 in Calm     85% 0.00 in 0 W/m2
06:14 36.8 °F 32.7 °F 29.91 in Calm     85% 0.00 in 0 W/m2
06:19 36.8 °F 32.7 °F 29.91 in Calm     85% 0.00 in 0 W/m2
06:24 36.7 °F 32.6 °F 29.91 in Calm     85% 0.00 in 0 W/m2
06:29 36.7 °F 32.6 °F 29.91 in Calm     85% 0.00 in 7 W/m2
06:34 36.7 °F 32.7 °F 29.91 in Calm     85.4% 0.00 in 9 W/m2
06:39 36.7 °F 32.9 °F 29.91 in Calm     86% 0.00 in 12 W/m2
06:44 36.7 °F 32.9 °F 29.92 in Calm     86% 0.00 in 14 W/m2
06:49 36.8 °F 33 °F 29.92 in Calm     86% 0.00 in 16 W/m2
06:54 36.8 °F 33 °F 29.92 in Calm     86% 0.00 in 21 W/m2
06:59 36.8 °F 33 °F 29.92 in Calm     86% 0.00 in 28 W/m2
07:04 37 °F 33.2 °F 29.92 in Calm     86% 0.00 in 32 W/m2
07:09 37 °F 33.2 °F 29.92 in Calm     86% 0.00 in 37 W/m2
07:14 37.1 °F 33.4 °F 29.93 in Calm     86% 0.00 in 40 W/m2
07:19 37.3 °F 33.5 °F 29.93 in Calm     86% 0.00 in 48 W/m2
07:24 37.4 °F 33.6 °F 29.93 in Calm     86% 0.00 in 60 W/m2
07:29 37.6 °F 33.7 °F 29.93 in Calm     85.4% 0.00 in 81 W/m2
07:34 37.7 °F 33.7 °F 29.93 in Calm     85% 0.00 in 93 W/m2
07:39 37.9 °F 33.6 °F 29.93 in Calm     84.1% 0.00 in 90 W/m2
07:44 38.1 °F 33.7 °F 29.93 in Calm     84% 0.00 in 104 W/m2
07:49 38.6 °F 33.9 °F 29.93 in Calm     83% 0.00 in 116 W/m2
07:54 38.8 °F 33.6 °F 29.93 in Calm     81.2% 0.00 in 137 W/m2
07:59 39.3 °F 33.3 °F 29.94 in Calm     78.8% 0.00 in 201 W/m2
08:04 40 °F 33.2 °F 29.94 in Calm     76.5% 0.00 in 245 W/m2
08:09 40.7 °F 33 °F 29.94 in ENE 0.3 mph 3 mph 73.8% 0.00 in 245 W/m2
08:14 41.3 °F 32.6 °F 29.94 in ENE 0.6 mph 4 mph 71% 0.00 in 213 W/m2
08:19 41.7 °F 32.3 °F 29.93 in Calm   4 mph 68.9% 0.00 in 252 W/m2
08:24 42.1 °F 32.1 °F 29.93 in ENE 0.4 mph 6 mph 67.6% 0.00 in 227 W/m2
08:29 42.1 °F 31.6 °F 29.93 in East 0.8 mph 5 mph 66.2% 0.00 in 267 W/m2
08:34 42.4 °F 32.2 °F 29.93 in ENE 1.9 mph 5 mph 66.9% 0.00 in 267 W/m2
08:39 42.7 °F 32 °F 29.93 in ENE 3.4 mph 8 mph 65.7% 0.00 in 239 W/m2
08:44 43 °F 32 °F 29.94 in ENE 3 mph 7 mph 65% 0.00 in 343 W/m2
08:49 43.4 °F 32 °F 29.94 in ENE 2.4 mph 8 mph 63.8% 0.00 in 380 W/m2
08:53 43.8 °F 32 °F 29.94 in East 1.6 mph 6 mph 63% 0.00 in 378 W/m2
09:04 45.4 °F 32.6 °F 29.94 in ENE 1.9 mph 8 mph 60.7% 0.00 in 558 W/m2
09:09 45.2 °F 32.3 °F 29.94 in East 3.6 mph 8 mph 60.2% 0.00 in 338 W/m2
09:14 44.7 °F 32 °F 29.94 in East 3.8 mph 8 mph 60.8% 0.00 in 311 W/m2
09:19 44.5 °F 32 °F 29.94 in ENE 2.9 mph 8 mph 61.2% 0.00 in 276 W/m2
09:24 44.6 °F 32.2 °F 29.94 in East 4.8 mph 8 mph 61.4% 0.00 in 285 W/m2
09:29 44.6 °F 32.3 °F 29.94 in ENE 1.8 mph 7 mph 61.7% 0.00 in 294 W/m2
09:34 44.8 °F 32.6 °F 29.94 in ENE 2.5 mph 8 mph 62% 0.00 in 347 W/m2
09:39 44.9 °F 32.6 °F 29.94 in ENE 2.8 mph 6 mph 61.6% 0.00 in 324 W/m2
09:44 45.1 °F 32.6 °F 29.95 in ENE 1.7 mph 7 mph 61.3% 0.00 in 417 W/m2
09:49 45.6 °F 32.8 °F 29.95 in East 2.9 mph 7 mph 60.6% 0.00 in 452 W/m2
09:54 46.1 °F 32.8 °F 29.95 in East 5.9 mph 11 mph 59.7% 0.00 in 470 W/m2
09:59 46.3 °F 33.2 °F 29.95 in ENE 5 mph 12 mph 59.9% 0.00 in 422 W/m2
10:04 46.7 °F 33.2 °F 29.95 in ENE 4.6 mph 11 mph 59.1% 0.00 in 598 W/m2
10:09 47.3 °F 33.5 °F 29.95 in NNE 2.5 mph 8 mph 58.6% 0.00 in 598 W/m2
10:14 47.5 °F 33.3 °F 29.95 in NE 2.6 mph 7 mph 57.6% 0.00 in 433 W/m2
10:19 47.6 °F 33.1 °F 29.95 in NE 3.6 mph 8 mph 56.8% 0.00 in 359 W/m2
10:24 47.1 °F 32.8 °F 29.95 in ENE 2.2 mph 10 mph 57.4% 0.00 in 377 W/m2
10:29 47.4 °F 32.9 °F 29.95 in ENE 3.2 mph 10 mph 56.9% 0.00 in 408 W/m2
10:34 47.6 °F 32.8 °F 29.95 in North 1.7 mph 8 mph 56.2% 0.00 in 408 W/m2
10:39 47.8 °F 32.9 °F 29.95 in ENE 2.4 mph 8 mph 56% 0.00 in 408 W/m2
10:44 47.9 °F 32.9 °F 29.95 in ENE 4 mph 11 mph 55.8% 0.00 in 389 W/m2
10:49 47.9 °F 32.7 °F 29.95 in ENE 3.1 mph 11 mph 55.4% 0.00 in 350 W/m2
10:54 48 °F 32.4 °F 29.95 in ENE 3.1 mph 11 mph 54.5% 0.00 in 415 W/m2
10:59 48.3 °F 32.4 °F 29.95 in ENE 4 mph 11 mph 54% 0.00 in 394 W/m2
11:04 48 °F 32.3 °F 29.95 in ENE 5.8 mph 11 mph 54.1% 0.00 in 296 W/m2
11:09 48 °F 32.4 °F 29.95 in ENE 1 mph 8 mph 54.6% 0.00 in 484 W/m2
11:14 48.8 °F 32.8 °F 29.95 in ENE 4.7 mph 13 mph 53.8% 0.00 in 561 W/m2
11:17 49.4 °F 33.1 °F 29.95 in ENE 0.7 mph 5 mph 53.3% 0.00 in 561 W/m2
11:24 49.8 °F 32.3 °F 29.95 in ENE 3.3 mph 11 mph 50.8% 0.00 in 493 W/m2
11:29 49.9 °F 32.5 °F 29.95 in ENE 2.3 mph 11 mph 50.9% 0.00 in 598 W/m2
11:34 50.4 °F 32.4 °F 29.94 in ENE 3.5 mph 10 mph 49.9% 0.00 in 581 W/m2
11:39 50.5 °F 32.4 °F 29.94 in ENE 3.1 mph 10 mph 49.7% 0.00 in 593 W/m2
11:44 50.8 °F 32.5 °F 29.94 in ENE 3.7 mph 12 mph 49.4% 0.00 in 625 W/m2
11:49 51.1 °F 32.7 °F 29.93 in NE 3.4 mph 8 mph 49.3% 0.00 in 368 W/m2
11:54 50.7 °F 32.4 °F 29.93 in ENE 7.2 mph 14 mph 49.2% 0.00 in 373 W/m2
11:59 50.3 °F 32.2 °F 29.93 in ENE 6.7 mph 16 mph 49.5% 0.00 in 440 W/m2
12:04 50.4 °F 32.1 °F 29.92 in ENE 4.5 mph 11 mph 49.4% 0.00 in 589 W/m2
12:09 50.8 °F 32.1 °F 29.92 in ENE 3.1 mph 9 mph 48.6% 0.00 in 616 W/m2
12:14 51.4 °F 32.8 °F 29.92 in ENE 6.2 mph 11 mph 48.7% 0.00 in 723 W/m2
12:19 51.9 °F 32.5 °F 29.92 in East 7.5 mph 13 mph 47.4% 0.00 in 709 W/m2
12:24 52.5 °F 32.6 °F 29.92 in ENE 5.4 mph 13 mph 46.4% 0.00 in 709 W/m2
12:29 52.3 °F 32.3 °F 29.92 in ENE 3.7 mph 11 mph 46.4% 0.00 in 292 W/m2
12:34 52 °F 32.5 °F 29.92 in North 1.7 mph 6 mph 47.1% 0.00 in 846 W/m2
12:39 52.4 °F 32.6 °F 29.91 in NE 2.3 mph 7 mph 46.7% 0.00 in 846 W/m2
12:44 53.1 °F 32.7 °F 29.91 in NE 2.5 mph 6 mph 45.7% 0.00 in 670 W/m2
12:49 53.8 °F 33 °F 29.91 in NE 3.9 mph 9 mph 45% 0.00 in 670 W/m2
12:54 53.5 °F 32.6 °F 29.91 in ENE 4.5 mph 12 mph 44.8% 0.00 in 885 W/m2
12:59 53.6 °F 33.3 °F 29.91 in ENE 2.6 mph 12 mph 45.9% 0.00 in 910 W/m2
13:04 54.2 °F 32.9 °F 29.90 in ENE 7 mph 14 mph 44.3% 0.00 in 903 W/m2
13:09 54.9 °F 33.7 °F 29.90 in NE 1.8 mph 11 mph 44.5% 0.00 in 903 W/m2
13:14 55.1 °F 33.2 °F 29.90 in ENE 4.2 mph 11 mph 43.3% 0.00 in 774 W/m2
13:19 54.8 °F 33.5 °F 29.89 in East 7.5 mph 16 mph 44.3% 0.00 in 635 W/m2
13:24 54.9 °F 33.8 °F 29.89 in ENE 5.2 mph 13 mph 44.6% 0.00 in 855 W/m2
13:29 55.4 °F 33.1 °F 29.89 in ENE 6.4 mph 17 mph 42.8% 0.00 in 806 W/m2
13:34 55.3 °F 33.6 °F 29.88 in ENE 9.5 mph 17 mph 43.6% 0.00 in 732 W/m2
13:39 55.2 °F 33.9 °F 29.88 in ENE 6.3 mph 13 mph 44.5% 0.00 in 728 W/m2
13:44 55.3 °F 33.6 °F 29.88 in ENE 4.7 mph 13 mph 43.8% 0.00 in 720 W/m2
13:49 55.4 °F 33.5 °F 29.88 in ENE 4.5 mph 12 mph 43.4% 0.00 in 720 W/m2
13:54 55.4 °F 34 °F 29.88 in NNE 3.2 mph 12 mph 44.2% 0.00 in 496 W/m2
13:59 55.2 °F 33.6 °F 29.88 in NE 4.1 mph 13 mph 43.8% 0.00 in 406 W/m2
14:04 54.6 °F 33.7 °F 29.88 in ENE 5.6 mph 13 mph 45.1% 0.00 in 303 W/m2
14:09 53.9 °F 34 °F 29.88 in ENE 5.9 mph 12 mph 46.7% 0.00 in 209 W/m2
14:14 53.8 °F 34 °F 29.88 in ENE 3.4 mph 10 mph 46.9% 0.00 in 211 W/m2
14:19 53.5 °F 33.5 °F 29.87 in ENE 4.9 mph 11 mph 46.4% 0.00 in 289 W/m2
14:24 53.4 °F 33.7 °F 29.87 in ENE 5 mph 13 mph 47% 0.00 in 364 W/m2
14:29 53.6 °F 33.9 °F 29.87 in ENE 4.2 mph 10 mph 47.1% 0.00 in 370 W/m2
14:34 53.8 °F 33.6 °F 29.87 in NE 0.8 mph 7 mph 46.1% 0.00 in 248 W/m2
14:39 53.8 °F 33.7 °F 29.87 in ENE 1.5 mph 8 mph 46.3% 0.00 in 287 W/m2
14:44 53.9 °F 33.6 °F 29.87 in NE 2.3 mph 10 mph 46% 0.00 in 352 W/m2
14:49 53.8 °F 33.5 °F 29.87 in NE 2.1 mph 10 mph 45.9% 0.00 in 355 W/m2
14:54 53.9 °F 33.9 °F 29.87 in NE 0.3 mph 4 mph 46.6% 0.00 in 276 W/m2
14:59 53.8 °F 33.6 °F 29.87 in North 0.4 mph 2 mph 46.2% 0.00 in 220 W/m2
15:04 53.6 °F 34 °F 29.87 in East 3.1 mph 6 mph 47.2% 0.00 in 283 W/m2
15:09 53.7 °F 34.2 °F 29.87 in NE 0.8 mph 5 mph 47.5% 0.00 in 310 W/m2
15:14 53.9 °F 33.8 °F 29.87 in NE 0.8 mph 5 mph 46.4% 0.00 in 285 W/m2
15:19 53.8 °F 33.9 °F 29.87 in ENE 2.6 mph 10 mph 46.6% 0.00 in 204 W/m2
15:24 53.6 °F 34.1 °F 29.87 in NE 1.6 mph 10 mph 47.5% 0.00 in 194 W/m2
15:29 53.5 °F 33.8 °F 29.87 in ENE 2.9 mph 8 mph 46.9% 0.00 in 248 W/m2
15:34 53.5 °F 34.4 °F 29.86 in ENE 5.1 mph 11 mph 48.2% 0.00 in 310 W/m2
15:39 53.4 °F 34.2 °F 29.86 in ENE 4.9 mph 11 mph 47.9% 0.00 in 336 W/m2
15:44 53.8 °F 34.1 °F 29.87 in ENE 4.4 mph 12 mph 46.9% 0.00 in 391 W/m2
15:49 54.1 °F 33.5 °F 29.87 in NE 2.5 mph 8 mph 45.5% 0.00 in 461 W/m2
15:54 54.1 °F 33.6 °F 29.87 in ENE 4.2 mph 12 mph 45.7% 0.00 in 461 W/m2
15:59 54.2 °F 34.2 °F 29.87 in ENE 3.2 mph 11 mph 46.6% 0.00 in 280 W/m2
16:04 54.1 °F 33.7 °F 29.87 in ENE 4.4 mph 11 mph 45.7% 0.00 in 294 W/m2
16:09 54.1 °F 34.1 °F 29.87 in ENE 7.5 mph 14 mph 46.7% 0.00 in 230 W/m2
16:14 53.7 °F 33.7 °F 29.87 in East 6.2 mph 12 mph 46.5% 0.00 in 243 W/m2
16:19 53.6 °F 34.1 °F 29.87 in ENE 3.6 mph 10 mph 47.4% 0.00 in 262 W/m2
16:24 53.9 °F 33.8 °F 29.87 in NE 2.8 mph 9 mph 46.5% 0.00 in 257 W/m2
16:29 54.1 °F 34.1 °F 29.87 in NE 2.6 mph 14 mph 46.5% 0.00 in 252 W/m2
16:34 54.2 °F 33.8 °F 29.87 in NE 3.2 mph 14 mph 45.8% 0.00 in 213 W/m2
16:39 54.2 °F 34.1 °F 29.87 in NNE 1.9 mph 6 mph 46.4% 0.00 in 188 W/m2
16:44 54.2 °F 34.2 °F 29.87 in ENE 6.6 mph 12 mph 46.7% 0.00 in 153 W/m2
16:49 54.1 °F 34.7 °F 29.87 in ENE 3.7 mph 8 mph 47.7% 0.00 in 139 W/m2
16:54 53.8 °F 34.4 °F 29.87 in ENE 4.9 mph 11 mph 47.5% 0.00 in 153 W/m2
16:59 53.8 °F 34.3 °F 29.88 in ENE 5.8 mph 13 mph 47.5% 0.00 in 157 W/m2
17:04 53.8 °F 34.7 °F 29.88 in ENE 3.4 mph 8 mph 48.2% 0.00 in 153 W/m2
17:09 53.8 °F 34.8 °F 29.88 in ENE 1.7 mph 6 mph 48.5% 0.00 in 127 W/m2
17:14 53.9 °F 35.2 °F 29.88 in ENE 4.1 mph 14 mph 49% 0.00 in 91 W/m2
17:19 53.7 °F 34.8 °F 29.88 in ENE 7.1 mph 14 mph 48.6% 0.00 in 91 W/m2
17:24 53.6 °F 35.1 °F 29.88 in NE 2.5 mph 11 mph 49.3% 0.00 in 93 W/m2
17:29 53.5 °F 35 °F 29.88 in ENE 6.5 mph 13 mph 49.3% 0.00 in 90 W/m2
17:34 53.3 °F 34.6 °F 29.88 in ENE 6.9 mph 11 mph 48.9% 0.00 in 90 W/m2
17:39 53.2 °F 34.8 °F 29.88 in ENE 5.4 mph 10 mph 49.4% 0.00 in 84 W/m2
17:44 53.1 °F 34.7 °F 29.89 in ENE 4.4 mph 8 mph 49.5% 0.00 in 88 W/m2
17:49 53.1 °F 35.2 °F 29.89 in East 3.6 mph 7 mph 50.5% 0.00 in 143 W/m2
17:54 53.3 °F 35.2 °F 29.89 in East 5.6 mph 10 mph 50.2% 0.00 in 148 W/m2
17:59 53.5 °F 35.5 °F 29.89 in NE 2.1 mph 6 mph 50.3% 0.00 in 116 W/m2
18:04 53.7 °F 35.4 °F 29.89 in ENE 1.3 mph 6 mph 49.7% 0.00 in 167 W/m2
18:09 53.9 °F 35.4 °F 29.89 in ENE 1.4 mph 6 mph 49.3% 0.00 in 185 W/m2
18:14 54.1 °F 35.5 °F 29.89 in ENE 3 mph 7 mph 49.1% 0.00 in 176 W/m2
18:19 53.9 °F 35.2 °F 29.89 in ENE 4.1 mph 7 mph 49% 0.00 in 72 W/m2
18:24 53.6 °F 35.4 °F 29.89 in ENE 1.2 mph 5 mph 49.9% 0.00 in 65 W/m2
18:29 53.3 °F 35.5 °F 29.90 in NE 1.8 mph 6 mph 50.6% 0.00 in 42 W/m2
18:34 53 °F 35.2 °F 29.90 in East 2.7 mph 7 mph 50.8% 0.00 in 37 W/m2
18:39 52.6 °F 35.4 °F 29.90 in ENE 1.6 mph 5 mph 51.8% 0.00 in 32 W/m2
18:44 52.4 °F 35.4 °F 29.91 in ENE 1.5 mph 6 mph 52.2% 0.00 in 26 W/m2
18:49 52.2 °F 35.1 °F 29.91 in ENE 0.2 mph 2 mph 52% 0.00 in 26 W/m2
18:54 52.1 °F 35.2 °F 29.91 in Calm     52.4% 0.00 in 23 W/m2
18:59 52 °F 35.4 °F 29.91 in Calm     53% 0.00 in 19 W/m2
19:04 51.8 °F 35.3 °F 29.91 in Calm     53.2% 0.00 in 14 W/m2
19:09 51.6 °F 36 °F 29.91 in Calm     55% 0.00 in 12 W/m2
19:14 51.3 °F 36.2 °F 29.91 in Calm     56% 0.00 in 11 W/m2
19:19 51 °F 36.1 °F 29.91 in Calm     56.4% 0.00 in 9 W/m2
19:24 50.7 °F 36.4 °F 29.91 in Calm     57.7% 0.00 in 7 W/m2
19:29 50.4 °F 36.4 °F 29.92 in Calm     58.5% 0.00 in 5 W/m2
19:34 50.1 °F 36.5 °F 29.92 in Calm     59.4% 0.00 in 0 W/m2
19:39 49.8 °F 36.9 °F 29.92 in Calm     61% 0.00 in 0 W/m2
19:44 49.5 °F 37.4 °F 29.92 in Calm     63% 0.00 in 0 W/m2
19:49 49.2 °F 37.5 °F 29.92 in Calm     63.7% 0.00 in 0 W/m2
19:54 49.1 °F 37.6 °F 29.92 in Calm     64.6% 0.00 in 0 W/m2
19:59 49 °F 37.7 °F 29.93 in Calm     65% 0.00 in 0 W/m2
20:04 48.9 °F 37.7 °F 29.93 in Calm     65.2% 0.00 in 0 W/m2
20:09 48.7 °F 38.2 °F 29.93 in Calm     67% 0.00 in 0 W/m2
20:14 48.6 °F 38.1 °F 29.93 in Calm     66.9% 0.00 in 0 W/m2
20:19 48.4 °F 38.5 °F 29.93 in Calm     68.5% 0.00 in 0 W/m2
20:24 48.1 °F 38.3 °F 29.93 in Calm   1 mph 68.6% 0.00 in 0 W/m2
20:29 48 °F 38.1 °F 29.94 in Calm     68.5% 0.00 in 0 W/m2
20:34 47.9 °F 37.9 °F 29.94 in East 0.9 mph 5 mph 68% 0.00 in 0 W/m2
20:39 47.9 °F 37.6 °F 29.94 in ENE 2.2 mph 8 mph 67.2% 0.00 in 0 W/m2
20:44 48.3 °F 37.3 °F 29.94 in ENE 2.4 mph 7 mph 65.7% 0.00 in 0 W/m2
20:49 48.7 °F 37.5 °F 29.94 in East 0.9 mph 6 mph 65% 0.00 in 0 W/m2
20:54 48.9 °F 37.7 °F 29.94 in ENE 1.6 mph 6 mph 65% 0.00 in 0 W/m2
20:59 49 °F 37.8 °F 29.94 in NE 0.7 mph 5 mph 65% 0.00 in 0 W/m2
21:04 49 °F 37.7 °F 29.94 in NE 1.1 mph 7 mph 64.8% 0.00 in 0 W/m2
21:09 49 °F 37.6 °F 29.94 in NE 0.7 mph 4 mph 64.7% 0.00 in 0 W/m2
21:14 49 °F 37.8 °F 29.94 in NE 2.7 mph 7 mph 65% 0.00 in 0 W/m2
21:19 49 °F 37.7 °F 29.94 in NE 2.1 mph 7 mph 65% 0.00 in 0 W/m2
21:24 48.8 °F 37.8 °F 29.94 in NE 0.8 mph 7 mph 65.4% 0.00 in 0 W/m2
21:29 48.6 °F 37.8 °F 29.95 in NNE 0.8 mph 6 mph 66% 0.00 in 0 W/m2
21:34 48.4 °F 37.8 °F 29.95 in NE 0.4 mph 3 mph 66.4% 0.00 in 0 W/m2
21:39 48.3 °F 37.9 °F 29.95 in Calm     67% 0.00 in 0 W/m2
21:44 48.1 °F 38 °F 29.95 in Calm     67.9% 0.00 in 0 W/m2
21:49 47.9 °F 37.9 °F 29.95 in Calm     68.2% 0.00 in 0 W/m2
21:54 47.6 °F 38 °F 29.95 in ENE 0.1 mph 3 mph 69.1% 0.00 in 0 W/m2
21:59 47.3 °F 38.1 °F 29.96 in Calm   3 mph 70.1% 0.00 in 0 W/m2
22:04 47.2 °F 38.3 °F 29.96 in Calm     71% 0.00 in 0 W/m2
22:09 47.1 °F 38.2 °F 29.96 in Calm     71% 0.00 in 0 W/m2
22:14 47.3 °F 38.4 °F 29.96 in Calm     71% 0.00 in 0 W/m2
22:19 47.3 °F 38.4 °F 29.96 in Calm     71% 0.00 in 0 W/m2
22:24 47.3 °F 38.4 °F 29.96 in Calm     71% 0.00 in 0 W/m2
22:29 47.3 °F 38.4 °F 29.96 in Calm     71% 0.00 in 0 W/m2
22:34 47.2 °F 38.6 °F 29.96 in Calm     71.9% 0.00 in 0 W/m2
22:39 47 °F 38.5 °F 29.96 in Calm     72% 0.00 in 0 W/m2
22:44 46.8 °F 38.7 °F 29.96 in Calm     73.4% 0.00 in 0 W/m2
22:49 46.6 °F 38.8 °F 29.96 in Calm     74% 0.00 in 0 W/m2
22:54 46.4 °F 38.6 °F 29.96 in Calm     74% 0.00 in 0 W/m2
22:59 46.2 °F 38.4 °F 29.96 in Calm     74.1% 0.00 in 0 W/m2
23:04 46 °F 38.6 °F 29.96 in Calm     75.2% 0.00 in 0 W/m2
23:09 45.8 °F 38.6 °F 29.96 in Calm     76% 0.00 in 0 W/m2
23:14 45.5 °F 38.4 °F 29.96 in Calm     76% 0.00 in 0 W/m2
23:19 45.3 °F 38.3 °F 29.96 in Calm     76.4% 0.00 in 0 W/m2
23:24 45.2 °F 38.4 °F 29.96 in Calm     77% 0.00 in 0 W/m2
23:29 45.2 °F 38.5 °F 29.96 in Calm     77.3% 0.00 in 0 W/m2
23:34 45 °F 38.3 °F 29.96 in Calm     77% 0.00 in 0 W/m2
23:39 44.9 °F 38.3 °F 29.96 in Calm     77.4% 0.00 in 0 W/m2
23:44 44.7 °F 38.3 °F 29.97 in Calm     78% 0.00 in 0 W/m2
23:49 44.7 °F 38.2 °F 29.97 in Calm     78% 0.00 in 0 W/m2
23:54 44.6 °F 38.2 °F 29.97 in Calm     78% 0.00 in 0 W/m2
23:59 44.5 °F 38.2 °F 29.97 in Calm     78.4% 0.00 in 0 W/m2
Lisbon, New Hampshire, USA
Compliments of Weather Underground - 4 mb